createdAt,value
2024-04-13T00:01:59.247Z,5.20
2024-04-13T00:04:26.047Z,4.15
2024-04-13T00:06:53.044Z,3.97
2024-04-13T00:09:21.005Z,3.58
2024-04-13T00:11:47.845Z,3.40
2024-04-13T00:14:14.565Z,4.30
2024-04-13T00:16:41.448Z,4.85
2024-04-13T00:19:08.944Z,3.38
2024-04-13T00:21:35.862Z,2.85
2024-04-13T00:24:02.816Z,2.45
2024-04-13T00:26:29.585Z,3.00
2024-04-13T00:28:56.612Z,4.00
2024-04-13T00:31:23.717Z,5.68
2024-04-13T00:33:50.499Z,4.20
2024-04-13T00:36:18.313Z,3.95
2024-04-13T00:38:45.167Z,3.23
2024-04-13T00:41:13.806Z,3.33
2024-04-13T00:43:40.598Z,3.45
2024-04-13T00:46:17.739Z,4.88
2024-04-13T00:48:45.258Z,3.78
2024-04-13T00:51:13.924Z,5.00
2024-04-13T00:53:42.580Z,3.83
2024-04-13T00:56:11.149Z,4.43
2024-04-13T00:58:38.384Z,4.13
2024-04-13T01:01:06.918Z,4.40
2024-04-13T01:03:36.744Z,6.13
2024-04-13T01:06:04.659Z,5.60
2024-04-13T01:08:35.409Z,6.00
2024-04-13T01:11:02.740Z,3.75
2024-04-13T01:13:29.722Z,5.43
2024-04-13T01:15:56.539Z,6.23
2024-04-13T01:18:24.742Z,5.07
2024-04-13T01:20:51.609Z,4.40
2024-04-13T01:23:19.849Z,4.63
2024-04-13T01:25:46.609Z,3.88
2024-04-13T01:28:16.277Z,6.07
2024-04-13T01:30:43.122Z,4.13
2024-04-13T01:33:10.868Z,3.53
2024-04-13T01:35:37.878Z,4.85
2024-04-13T01:38:04.755Z,3.70
2024-04-13T01:40:31.784Z,4.40
2024-04-13T01:42:59.315Z,2.60
2024-04-13T01:45:26.737Z,3.60
2024-04-13T01:47:53.663Z,3.45
2024-04-13T01:50:20.644Z,4.53
2024-04-13T01:52:47.613Z,3.23
2024-04-13T01:55:14.434Z,3.67
2024-04-13T01:57:41.250Z,5.03
2024-04-13T02:00:09.100Z,3.33
2024-04-13T02:02:35.940Z,4.53
2024-04-13T02:05:03.198Z,3.87
2024-04-13T02:07:30.634Z,4.30
2024-04-13T02:09:57.616Z,2.80
2024-04-13T02:12:24.424Z,5.15
2024-04-13T02:14:51.202Z,3.88
2024-04-13T02:17:18.066Z,4.00
2024-04-13T02:19:45.353Z,6.10
2024-04-13T02:22:12.833Z,3.60
2024-04-13T02:24:40.737Z,4.22
2024-04-13T02:27:07.722Z,4.22
2024-04-13T02:29:34.594Z,3.87
2024-04-13T02:32:01.339Z,4.68
2024-04-13T02:34:28.239Z,5.50
2024-04-13T02:36:54.982Z,4.00
2024-04-13T02:39:22.852Z,5.80
2024-04-13T02:41:49.971Z,3.83
2024-04-13T02:44:16.801Z,4.32
2024-04-13T02:46:43.765Z,4.45
2024-04-13T02:49:10.723Z,4.68
2024-04-13T02:51:37.769Z,4.75
2024-04-13T02:54:06.064Z,5.87
2024-04-13T02:56:34.933Z,5.22
2024-04-13T02:59:01.794Z,5.50
2024-04-13T03:01:28.621Z,3.55
2024-04-13T03:03:55.522Z,4.97
2024-04-13T03:06:22.468Z,6.77
2024-04-13T03:08:51.390Z,3.88
2024-04-13T03:11:19.361Z,3.95
2024-04-13T03:13:47.096Z,4.60
2024-04-13T03:16:14.182Z,5.55
2024-04-13T03:18:45.149Z,3.27
2024-04-13T03:21:12.392Z,4.05
2024-04-13T03:23:41.200Z,9.13
2024-04-13T03:26:08.120Z,3.50
2024-04-13T03:28:35.995Z,3.85
2024-04-13T03:31:03.968Z,6.13
2024-04-13T03:33:31.253Z,5.13
2024-04-13T03:36:02.390Z,3.88
2024-04-13T03:38:29.183Z,5.57
2024-04-13T03:41:08.833Z,4.68
2024-04-13T03:43:40.131Z,3.93
2024-04-13T03:46:08.100Z,5.47
2024-04-13T03:48:39.381Z,7.88
2024-04-13T03:51:07.743Z,6.47
2024-04-13T03:53:34.537Z,7.07
2024-04-13T03:56:02.341Z,3.23
2024-04-13T03:58:29.753Z,4.68
2024-04-13T04:00:56.699Z,6.28
2024-04-13T04:03:24.329Z,6.55
2024-04-13T04:05:52.032Z,4.15
2024-04-13T04:08:19.633Z,5.67
2024-04-13T04:10:46.503Z,4.80
2024-04-13T04:13:13.412Z,4.32
2024-04-13T04:15:41.729Z,5.10
2024-04-13T04:18:08.778Z,5.00
2024-04-13T04:20:35.833Z,4.93
2024-04-13T04:23:03.099Z,5.13
2024-04-13T04:25:29.930Z,5.78
2024-04-13T04:27:56.743Z,6.63
2024-04-13T04:30:26.202Z,6.15
2024-04-13T04:32:54.263Z,5.33
2024-04-13T04:35:21.255Z,7.65
2024-04-13T04:37:48.045Z,5.90
2024-04-13T04:40:14.803Z,5.32
2024-04-13T04:42:41.709Z,4.90
2024-04-13T04:45:09.328Z,6.03
2024-04-13T04:47:36.292Z,5.38
2024-04-13T04:50:04.974Z,4.93
2024-04-13T04:52:31.960Z,5.97
2024-04-13T04:55:02.281Z,5.00
2024-04-13T04:57:29.435Z,10.33
2024-04-13T04:59:56.698Z,6.55
2024-04-13T05:02:23.618Z,5.15
2024-04-13T05:04:50.357Z,7.30
2024-04-13T05:07:17.181Z,7.25
2024-04-13T05:09:43.958Z,5.70
2024-04-13T05:12:12.846Z,5.88
2024-04-13T05:14:39.891Z,6.82
2024-04-13T05:17:07.017Z,9.50
2024-04-13T05:19:34.057Z,7.55
2024-04-13T05:22:05.693Z,6.67
2024-04-13T05:24:33.691Z,8.35
2024-04-13T05:27:07.141Z,5.82
2024-04-13T05:29:37.685Z,7.07
2024-04-13T05:32:05.629Z,6.03
2024-04-13T05:34:32.910Z,6.50
2024-04-13T05:36:59.679Z,5.22
2024-04-13T05:39:28.970Z,6.30
2024-04-13T05:41:55.758Z,6.13
2024-04-13T05:44:22.534Z,5.03
2024-04-13T05:46:51.649Z,4.90
2024-04-13T05:49:18.526Z,8.45
2024-04-13T05:51:46.724Z,8.27
2024-04-13T05:54:13.549Z,5.90
2024-04-13T05:56:40.719Z,9.68
2024-04-13T05:59:07.969Z,9.13
2024-04-13T06:01:35.699Z,8.02
2024-04-13T06:04:02.573Z,6.10
2024-04-13T06:06:29.382Z,7.45
2024-04-13T06:08:56.153Z,6.85
2024-04-13T06:11:22.954Z,7.30
2024-04-13T06:13:49.750Z,7.13
2024-04-13T06:16:16.574Z,9.05
2024-04-13T06:18:43.485Z,5.65
2024-04-13T06:21:10.580Z,6.75
2024-04-13T06:23:37.415Z,6.10
2024-04-13T06:26:06.170Z,6.10
2024-04-13T06:28:32.957Z,7.13
2024-04-13T06:30:59.738Z,7.60
2024-04-13T06:33:26.672Z,3.80
2024-04-13T06:35:53.659Z,6.47
2024-04-13T06:38:25.293Z,6.72
2024-04-13T06:40:52.677Z,6.38
2024-04-13T06:43:23.416Z,4.72
2024-04-13T06:45:51.961Z,5.10
2024-04-13T06:48:19.019Z,6.93
2024-04-13T06:50:45.926Z,4.65
2024-04-13T06:53:12.778Z,4.93
2024-04-13T06:55:39.514Z,7.75
2024-04-13T06:58:06.401Z,5.78
2024-04-13T07:00:34.181Z,8.27
2024-04-13T07:03:01.296Z,5.55
2024-04-13T07:05:28.489Z,8.27
2024-04-13T07:07:55.308Z,4.13
2024-04-13T07:10:22.195Z,5.15
2024-04-13T07:12:49.257Z,4.67
2024-04-13T07:15:16.083Z,5.70
2024-04-13T07:17:42.880Z,6.70
2024-04-13T07:20:10.312Z,6.97
2024-04-13T07:22:37.119Z,7.07
2024-04-13T07:25:04.104Z,6.70
2024-04-13T07:27:30.908Z,8.82
2024-04-13T07:29:57.678Z,8.43
2024-04-13T07:32:24.507Z,6.25
2024-04-13T07:34:51.283Z,5.32
2024-04-13T07:37:18.025Z,5.87
2024-04-13T07:39:44.837Z,5.78
2024-04-13T07:42:11.746Z,7.43
2024-04-13T07:44:41.264Z,6.20
2024-04-13T07:47:09.523Z,6.05
2024-04-13T07:49:36.263Z,4.60
2024-04-13T07:52:03.020Z,6.43
2024-04-13T07:54:29.794Z,7.05
2024-04-13T07:56:56.887Z,7.53
2024-04-13T07:59:23.739Z,6.43
2024-04-13T08:01:50.860Z,6.87
2024-04-13T08:04:18.257Z,8.77
2024-04-13T08:06:45.203Z,10.32
2024-04-13T08:09:12.060Z,5.60
2024-04-13T08:11:40.000Z,6.15
2024-04-13T08:14:11.666Z,6.63
2024-04-13T08:16:39.986Z,7.85
2024-04-13T08:19:06.856Z,8.85
2024-04-13T08:21:35.416Z,7.63
2024-04-13T08:24:02.718Z,7.68
2024-04-13T08:26:29.492Z,6.53
2024-04-13T08:28:56.324Z,6.13
2024-04-13T08:31:23.159Z,7.22
2024-04-13T08:33:50.025Z,7.13
2024-04-13T08:36:16.835Z,7.07
2024-04-13T08:38:45.669Z,9.07
2024-04-13T08:41:23.419Z,10.27
2024-04-13T08:43:50.380Z,6.20
2024-04-13T08:46:17.131Z,4.72
2024-04-13T08:48:44.499Z,5.65
2024-04-13T08:51:13.454Z,6.80
2024-04-13T08:53:43.301Z,7.55
2024-04-13T08:56:12.537Z,6.60
2024-04-13T08:58:40.245Z,4.80
2024-04-13T09:01:11.899Z,6.13
2024-04-13T09:03:38.936Z,7.60
2024-04-13T09:06:07.518Z,6.25
2024-04-13T09:08:35.454Z,6.80
2024-04-13T09:11:07.127Z,9.82
2024-04-13T09:13:34.258Z,7.35
2024-04-13T09:16:01.666Z,8.00
2024-04-13T09:18:28.810Z,7.70
2024-04-13T09:27:19.298Z,5.32
2024-04-13T09:33:59.976Z,6.85
2024-04-13T09:36:28.095Z,7.53
2024-04-13T09:39:03.867Z,8.35
2024-04-13T09:41:30.691Z,7.47
2024-04-13T09:43:57.431Z,8.30
2024-04-13T09:46:24.361Z,8.32
2024-04-13T09:48:57.585Z,7.82
2024-04-13T09:51:26.164Z,6.15
2024-04-13T09:53:54.601Z,10.48
2024-04-13T09:56:22.230Z,7.83
2024-04-13T09:58:51.575Z,7.15
2024-04-13T10:01:18.463Z,13.15
2024-04-13T10:03:45.547Z,10.13
2024-04-13T10:06:16.845Z,12.15
2024-04-13T10:08:45.320Z,9.63
2024-04-13T10:11:14.365Z,8.63
2024-04-13T10:13:45.685Z,10.27
2024-04-13T10:16:13.814Z,9.45
2024-04-13T10:18:40.654Z,10.32
2024-04-13T10:21:07.726Z,9.47
2024-04-13T10:23:41.816Z,12.07
2024-04-13T10:26:09.013Z,11.45
2024-04-13T10:28:35.871Z,11.98
2024-04-13T10:31:05.768Z,13.52
2024-04-13T10:33:37.137Z,10.97
2024-04-13T10:36:15.912Z,13.52
2024-04-13T10:38:56.301Z,10.00
2024-04-13T10:41:37.380Z,11.90
2024-04-13T10:44:15.853Z,11.90
2024-04-13T10:47:00.299Z,11.17
2024-04-13T10:49:29.927Z,14.57
2024-04-13T10:51:57.333Z,10.20
2024-04-13T10:54:25.569Z,10.45
2024-04-13T10:56:59.801Z,11.05
2024-04-13T10:59:34.531Z,10.87
2024-04-13T11:02:05.361Z,11.05
2024-04-13T11:04:42.917Z,14.90
2024-04-13T11:07:09.893Z,16.48
2024-04-13T11:09:36.746Z,12.27
2024-04-13T11:12:07.394Z,11.73
2024-04-13T11:14:34.167Z,10.32
2024-04-13T11:17:01.123Z,11.93
2024-04-13T11:19:28.142Z,12.93
2024-04-13T11:21:58.354Z,13.50
2024-04-13T11:24:27.707Z,9.80
2024-04-13T11:26:56.190Z,14.25
2024-04-13T11:29:23.359Z,13.50
2024-04-13T11:31:50.627Z,8.73
2024-04-13T11:34:17.706Z,12.85
2024-04-13T11:36:44.821Z,9.20
2024-04-13T11:39:11.678Z,13.27
2024-04-13T11:41:38.658Z,11.77
2024-04-13T11:44:06.180Z,15.00
2024-04-13T11:46:32.971Z,13.02
2024-04-13T11:49:00.370Z,10.20
2024-04-13T11:51:29.291Z,12.10
2024-04-13T11:53:56.714Z,12.27
2024-04-13T11:56:23.815Z,8.73
2024-04-13T11:59:00.312Z,11.07
2024-04-13T12:01:37.246Z,12.33
2024-04-13T12:04:07.956Z,9.55
2024-04-13T12:06:50.180Z,10.60
2024-04-13T12:09:19.786Z,8.48
2024-04-13T12:11:46.752Z,10.38
2024-04-13T12:14:15.454Z,12.93
2024-04-13T12:16:42.592Z,7.55
2024-04-13T12:19:09.431Z,11.65
2024-04-13T12:21:36.357Z,9.38
2024-04-13T12:24:05.463Z,11.85
2024-04-13T12:26:32.239Z,12.17
2024-04-13T12:28:58.998Z,10.82
2024-04-13T12:31:26.120Z,9.48
2024-04-13T12:33:52.872Z,11.95
2024-04-13T12:36:19.687Z,11.00
2024-04-13T12:38:46.446Z,7.47
2024-04-13T12:41:14.673Z,9.43
2024-04-13T12:43:42.033Z,8.52
2024-04-13T12:46:08.865Z,7.57
2024-04-13T12:48:35.751Z,7.38
2024-04-13T12:51:02.599Z,9.77
2024-04-13T12:53:29.388Z,7.07
2024-04-13T12:55:56.262Z,9.73
2024-04-13T12:58:23.062Z,7.10
2024-04-13T13:00:49.873Z,10.80
2024-04-13T13:03:16.809Z,6.67
2024-04-13T13:05:45.789Z,7.07
2024-04-13T13:08:13.355Z,7.85
2024-04-13T13:10:40.104Z,5.22
2024-04-13T13:13:06.961Z,9.60
2024-04-13T13:15:33.768Z,9.03
2024-04-13T13:18:00.613Z,11.38
2024-04-13T13:20:27.415Z,7.85
2024-04-13T13:22:54.462Z,7.88
2024-04-13T13:25:21.237Z,8.52
2024-04-13T13:27:48.082Z,10.20
2024-04-13T13:30:14.907Z,8.35
2024-04-13T13:32:41.739Z,14.98
2024-04-13T13:35:08.680Z,9.40
2024-04-13T13:37:36.770Z,7.15
2024-04-13T13:40:03.989Z,13.40
2024-04-13T13:42:30.725Z,8.05
2024-04-13T13:44:57.495Z,8.88
2024-04-13T13:47:24.319Z,8.07
2024-04-13T13:49:52.507Z,7.47
2024-04-13T13:52:19.296Z,8.83
2024-04-13T13:54:46.134Z,8.18
2024-04-13T13:57:12.938Z,9.77
2024-04-13T13:59:39.747Z,8.07
2024-04-13T14:02:07.219Z,10.38
2024-04-13T14:04:34.111Z,7.20
2024-04-13T14:07:00.847Z,10.10
2024-04-13T14:09:27.608Z,8.00
2024-04-13T14:11:54.442Z,9.15
2024-04-13T14:14:21.192Z,9.80
2024-04-13T14:16:49.957Z,7.83
2024-04-13T14:19:19.885Z,11.63
2024-04-13T14:21:46.777Z,9.70
2024-04-13T14:24:13.556Z,8.23
2024-04-13T14:26:41.260Z,10.10
2024-04-13T14:29:08.102Z,10.60
2024-04-13T14:31:34.923Z,7.35
2024-04-13T14:34:01.848Z,9.15
2024-04-13T14:36:28.696Z,8.20
2024-04-13T14:38:55.742Z,10.93
2024-04-13T14:41:22.533Z,8.83
2024-04-13T14:43:51.157Z,9.77
2024-04-13T14:46:17.926Z,9.45
2024-04-13T14:48:45.101Z,10.77
2024-04-13T14:51:12.225Z,8.05
2024-04-13T14:53:39.012Z,8.87
2024-04-13T14:56:06.190Z,14.18
2024-04-13T14:58:32.942Z,10.57
2024-04-13T15:01:03.502Z,6.70
2024-04-13T15:03:30.562Z,9.85
2024-04-13T15:05:58.086Z,6.93
2024-04-13T15:08:25.414Z,7.68
2024-04-13T15:10:52.220Z,12.02
2024-04-13T15:13:19.054Z,10.60
2024-04-13T15:15:49.561Z,9.15
2024-04-13T15:18:16.959Z,11.47
2024-04-13T15:20:43.773Z,6.90
2024-04-13T15:23:10.573Z,7.95
2024-04-13T15:25:37.703Z,8.20
2024-04-13T15:28:04.755Z,8.00
2024-04-13T15:30:31.517Z,9.73
2024-04-13T15:32:58.383Z,6.60
2024-04-13T15:35:25.203Z,7.50
2024-04-13T15:37:52.446Z,7.55
2024-04-13T15:40:20.683Z,9.35
2024-04-13T15:42:47.703Z,6.70
2024-04-13T15:45:15.682Z,7.47
2024-04-13T15:47:45.288Z,7.90
2024-04-13T15:50:12.188Z,8.13
2024-04-13T15:52:38.975Z,7.47
2024-04-13T15:55:05.850Z,6.93
2024-04-13T15:57:32.774Z,7.10
2024-04-13T16:00:01.011Z,10.20
2024-04-13T16:02:28.255Z,6.90
2024-04-13T16:04:55.908Z,7.10
2024-04-13T16:07:23.050Z,10.10
2024-04-13T16:09:55.342Z,6.03
2024-04-13T16:12:22.999Z,8.35
2024-04-13T16:14:50.189Z,6.40
2024-04-13T16:17:17.109Z,9.50
2024-04-13T16:19:43.996Z,7.80
2024-04-13T16:22:10.874Z,6.53
2024-04-13T16:24:37.742Z,8.65
2024-04-13T16:27:06.214Z,8.68
2024-04-13T16:29:33.007Z,9.82
2024-04-13T16:32:01.623Z,6.30
2024-04-13T16:34:29.241Z,9.77
2024-04-13T16:37:00.622Z,6.38
2024-04-13T16:39:29.305Z,6.35
2024-04-13T16:42:32.452Z,7.63
2024-04-13T16:45:22.375Z,9.97
2024-04-13T16:47:59.600Z,6.75
2024-04-13T16:50:30.924Z,7.38
2024-04-13T16:53:04.485Z,8.30
2024-04-13T16:58:37.589Z,6.17
2024-04-13T17:03:46.213Z,9.73
2024-04-13T17:06:21.250Z,8.48
2024-04-13T17:08:54.919Z,6.80
2024-04-13T17:11:35.267Z,7.23
2024-04-13T17:14:02.085Z,7.85
2024-04-13T17:16:28.875Z,5.30
2024-04-13T17:21:42.806Z,6.43
2024-04-13T17:24:09.614Z,6.53
2024-04-13T17:26:36.463Z,6.85
2024-04-13T17:29:03.194Z,6.40
2024-04-13T17:31:30.094Z,9.15
2024-04-13T17:33:56.892Z,7.80
2024-04-13T17:36:24.364Z,7.23
2024-04-13T17:38:51.199Z,8.00
2024-04-13T17:41:17.926Z,7.97
2024-04-13T17:43:45.474Z,6.78
2024-04-13T17:46:12.194Z,11.40
2024-04-13T17:48:39.027Z,9.03
2024-04-13T17:51:06.203Z,8.55
2024-04-13T17:53:32.955Z,7.38
2024-04-13T17:55:59.720Z,8.45
2024-04-13T17:58:26.438Z,6.40
2024-04-13T18:00:53.263Z,7.03
2024-04-13T18:03:20.140Z,9.68
2024-04-13T18:05:46.948Z,5.97
2024-04-13T18:08:13.751Z,6.72
2024-04-13T18:10:41.388Z,9.80
2024-04-13T18:13:08.185Z,5.77
2024-04-13T18:15:34.976Z,9.48
2024-04-13T18:18:02.005Z,7.63
2024-04-13T18:20:29.149Z,9.55
2024-04-13T18:22:55.895Z,7.07
2024-04-13T18:25:22.727Z,7.70
2024-04-13T18:27:49.570Z,9.00
2024-04-13T18:30:16.421Z,7.00
2024-04-13T18:32:43.226Z,5.20
2024-04-13T18:35:10.036Z,9.57
2024-04-13T18:37:36.780Z,7.43
2024-04-13T18:40:03.757Z,7.20
2024-04-13T18:42:30.777Z,8.73
2024-04-13T18:44:57.517Z,6.53
2024-04-13T18:47:24.440Z,7.63
2024-04-13T18:49:54.898Z,7.03
2024-04-13T18:52:22.206Z,10.52
2024-04-13T18:54:49.764Z,6.05
2024-04-13T18:57:16.698Z,7.57
2024-04-13T18:59:43.925Z,9.20
2024-04-13T19:02:10.858Z,8.43
2024-04-13T19:04:37.745Z,5.60
2024-04-13T19:07:04.864Z,5.45
2024-04-13T19:09:31.839Z,6.55
2024-04-13T19:11:58.745Z,8.18
2024-04-13T19:14:25.496Z,6.97
2024-04-13T19:16:52.534Z,9.57
2024-04-13T19:19:19.648Z,7.35
2024-04-13T19:21:46.640Z,10.27
2024-04-13T19:24:14.165Z,8.50
2024-04-13T19:26:41.903Z,11.87
2024-04-13T19:29:09.058Z,12.48
2024-04-13T19:31:36.135Z,6.85
2024-04-13T19:34:04.287Z,8.65
2024-04-13T19:36:32.574Z,11.18
2024-04-13T19:38:59.472Z,9.57
2024-04-13T19:41:26.194Z,7.00
2024-04-13T19:43:53.494Z,5.40
2024-04-13T19:46:20.502Z,11.15
2024-04-13T19:48:47.383Z,8.52
2024-04-13T19:51:14.194Z,7.03
2024-04-13T19:53:44.724Z,8.68
2024-04-13T19:56:11.481Z,7.53
2024-04-13T19:58:38.237Z,5.10
2024-04-13T20:01:06.957Z,5.15
2024-04-13T20:03:34.060Z,5.07
2024-04-13T20:06:01.584Z,7.43
2024-04-13T20:08:28.665Z,5.10
2024-04-13T20:11:06.038Z,4.35
2024-04-13T20:13:33.469Z,5.50
2024-04-13T20:16:19.246Z,16.93
2024-04-13T20:18:46.506Z,6.68
2024-04-13T20:21:13.535Z,3.88
2024-04-13T20:23:40.360Z,4.13
2024-04-13T20:26:07.175Z,6.85
2024-04-13T20:28:36.886Z,5.47
2024-04-13T20:31:03.768Z,6.60
2024-04-13T20:33:31.746Z,4.57
2024-04-13T20:35:58.738Z,7.55
2024-04-13T20:38:25.957Z,7.95
2024-04-13T20:40:54.243Z,6.97
2024-04-13T20:43:21.012Z,2.72
2024-04-13T20:45:47.821Z,3.10
2024-04-13T20:48:14.890Z,4.93
2024-04-13T20:50:41.962Z,8.60
2024-04-13T20:53:08.820Z,5.70
2024-04-13T20:55:35.578Z,4.85
2024-04-13T20:58:02.796Z,5.35
2024-04-13T21:00:32.315Z,4.07
2024-04-13T21:02:59.652Z,4.65
2024-04-13T21:05:34.242Z,3.67
2024-04-13T21:08:04.889Z,4.93
2024-04-13T21:10:31.927Z,4.70
2024-04-13T21:13:01.061Z,4.40
2024-04-13T21:15:28.220Z,8.88
2024-04-13T21:17:55.058Z,7.57
2024-04-13T21:20:21.896Z,4.22
2024-04-13T21:22:48.621Z,6.00
2024-04-13T21:25:15.386Z,5.72
2024-04-13T21:27:42.167Z,5.43
2024-04-13T21:30:09.429Z,5.67
2024-04-13T21:32:36.758Z,5.82
2024-04-13T21:35:03.727Z,5.35
2024-04-13T21:37:30.604Z,7.80
2024-04-13T21:39:57.453Z,6.35
2024-04-13T21:42:24.277Z,4.87
2024-04-13T21:44:51.195Z,6.90
2024-04-13T21:47:17.933Z,6.22
2024-04-13T21:49:44.699Z,5.63
2024-04-13T21:52:11.458Z,7.68
2024-04-13T21:54:38.226Z,8.90
2024-04-13T21:57:08.732Z,6.60
2024-04-13T21:59:37.144Z,5.40
2024-04-13T22:02:04.123Z,5.25
2024-04-13T22:04:30.928Z,5.45
2024-04-13T22:06:57.799Z,6.27
2024-04-13T22:09:24.674Z,6.72
2024-04-13T22:11:51.454Z,6.40
2024-04-13T22:14:18.256Z,5.03
2024-04-13T22:16:45.034Z,8.32
2024-04-13T22:19:12.110Z,7.83
2024-04-13T22:21:39.025Z,8.25
2024-04-13T22:24:06.693Z,9.40
2024-04-13T22:26:33.529Z,7.43
2024-04-13T22:29:00.337Z,10.75
2024-04-13T22:31:28.835Z,7.60
2024-04-13T22:33:55.815Z,7.15
2024-04-13T22:36:22.659Z,8.07
2024-04-13T22:38:49.494Z,8.10
2024-04-13T22:41:16.212Z,7.97
2024-04-13T22:43:42.959Z,10.77
2024-04-13T22:46:10.130Z,11.45
2024-04-13T22:48:36.972Z,9.68
2024-04-13T22:51:04.251Z,8.82
2024-04-13T22:53:30.979Z,10.30
2024-04-13T22:55:57.869Z,12.30
2024-04-13T22:58:24.663Z,10.00
2024-04-13T23:00:55.205Z,8.75
2024-04-13T23:03:22.168Z,13.88
2024-04-13T23:05:55.921Z,8.68
2024-04-13T23:08:22.836Z,10.40
2024-04-13T23:10:49.733Z,11.55
2024-04-13T23:13:16.932Z,9.75
2024-04-13T23:15:43.997Z,9.85
2024-04-13T23:18:10.837Z,9.52
2024-04-13T23:20:37.891Z,16.30
2024-04-13T23:23:04.865Z,11.77
2024-04-13T23:25:32.458Z,12.45
2024-04-13T23:27:59.597Z,12.63
2024-04-13T23:30:26.548Z,15.73
2024-04-13T23:32:53.379Z,11.80
2024-04-13T23:35:20.302Z,14.15
2024-04-13T23:37:47.120Z,16.08
2024-04-13T23:40:13.901Z,12.32
2024-04-13T23:42:40.658Z,10.30
2024-04-13T23:45:07.508Z,16.00
2024-04-13T23:47:34.320Z,15.55
2024-04-13T23:50:01.083Z,17.95
2024-04-13T23:52:27.845Z,18.20
2024-04-13T23:54:54.631Z,15.43
2024-04-13T23:57:21.421Z,17.60
2024-04-13T23:59:48.194Z,15.52
